Latest Weather Observations for Dartmoor

IDV60801

Issued at 4:32 pm EDT Tuesday 6 December 2016 (issued every 30 minutes, with the page automatically refreshed every 10 minutes)

About weather observations | Map of weather stations | Latest weather observations for VIC | Other Formats
Station Details ID: 090194 Name: DARTMOOR Lat: -37.92 Lon: 141.26 Height: 51.0 m
Data from the previous 72 hours. | See also: Recent months at Dartmoor
Date/Time
EDT
Temp
°C
App
Temp
°C
Dew
Point
°C
Rel
Hum
%
Delta-T
°C
Wind Press
QNH
hPa
Press
MSL
hPa
Rain since
9am
mm
Dir  Spd
km/h
Gust
km/h
Spd
kts
Gust
kts
06/04:30pm 19.1 15.3 5.9 42 6.5 SSW 15 28 8 15 1014.9 1014.8 0.0
06/04:00pm 19.6 15.9 6.4 42 6.6 SW 15 28 8 15 1014.8 1014.7 0.0
06/03:30pm 19.4 16.0 5.8 41 6.7 SSW 13 24 7 13 1014.8 1014.7 0.0
06/03:00pm 19.3 14.5 4.6 38 7.1 SSW 19 32 10 17 1014.9 1014.8 0.0
06/02:30pm 18.9 15.4 5.4 41 6.6 SW 13 24 7 13 1015.1 1015.0 0.0
06/02:00pm 17.8 13.8 6.7 48 5.5 SSW 17 26 9 14 1015.2 1015.1 0.0
06/01:30pm 19.1 14.7 6.6 44 6.3 SW 19 32 10 17 1015.4 1015.3 0.0
06/01:00pm 18.2 13.7 6.1 45 6.0 SW 19 32 10 17 1015.6 1015.5 0.0
06/12:30pm 18.7 13.9 5.5 42 6.5 SW 20 30 11 16 1015.6 1015.5 0.0
06/12:00pm 18.8 14.4 4.6 39 6.8 W 17 28 9 15 1015.6 1015.5 0.0
06/11:30am 18.7 15.7 7.5 48 5.7 W 13 22 7 12 1015.8 1015.7 0.0
06/11:00am 17.1 13.7 5.7 47 5.5 WSW 13 28 7 15 1015.8 1015.7 0.0
06/10:30am 15.9 13.7 6.1 52 4.8 SSW 7 13 4 7 1015.7 1015.6 0.0
06/10:00am 16.5 14.6 7.7 56 4.4 SW 7 13 4 7 1015.8 1015.7 0.0
06/09:30am 14.6 12.9 8.5 67 3.1 WNW 7 9 4 5 1015.9 1015.8 0.0
06/09:00am 12.2 11.1 9.8 85 1.2 NNW 6 7 3 4 1015.6 1015.5 0.0
06/08:30am 10.4 10.0 9.6 95 0.4 N 2 6 1 3 1015.6 1015.5 0.0
06/08:00am 9.2 8.5 8.6 96 0.3 NNE 2 2 1 1 1014.9 1014.8 0.0
06/07:30am 8.5 7.6 7.9 96 0.3 E 2 4 1 2 1014.6 1014.5 0.0
06/07:00am 7.8 6.8 7.2 96 0.3 NE 2 4 1 2 1014.5 1014.4 0.0
06/06:30am 7.2 6.0 6.6 96 0.3 NNW 2 2 1 1 1014.7 1014.6 0.0
06/06:00am 6.6 5.3 5.9 95 0.3 NE 2 4 1 2 1014.1 1014.0 0.0
06/05:30am 6.9 5.3 6.2 95 0.3 NE 4 6 2 3 1013.8 1013.7 0.0
06/05:00am 6.8 5.5 6.1 95 0.3 SE 2 4 1 2 1013.7 1013.6 0.0
06/04:30am 7.0 6.2 6.3 95 0.3 CALM 0 0 0 0 1013.8 1013.7 0.0
06/04:00am 6.7 5.8 6.0 95 0.3 CALM 0 2 0 1 1013.9 1013.8 0.0
06/03:30am 7.0 6.1 6.1 94 0.4 CALM 0 2 0 1 1013.2 1013.1 0.0
06/03:00am 7.1 6.2 6.2 94 0.4 CALM 0 0 0 0 1013.6 1013.5 0.0
06/02:30am 7.2 6.4 6.3 94 0.4 CALM 0 0 0 0 1013.3 1013.2 0.0
06/02:00am 7.2 6.3 6.1 93 0.5 CALM 0 0 0 0 1013.9 1013.8 0.0
06/01:30am 7.3 6.4 6.1 92 0.5 CALM 0 0 0 0 1013.9 1013.8 0.0
06/01:00am 7.6 6.7 6.2 91 0.6 CALM 0 0 0 0 1013.8 1013.7 0.0
06/12:30am 7.8 7.0 6.3 90 0.7 CALM 0 0 0 0 1014.3 1014.2 0.0
06/12:00am 8.3 7.5 6.4 88 0.9 CALM 0 0 0 0 1014.8 1014.7 0.0
 
Date/Time
EDT
Temp
°C
App
Temp
°C
Dew
Point
°C
Rel
Hum
%
Delta-T
°C
Wind Press
QNH
hPa
Press
MSL
hPa
Rain since
9am
mm
Dir  Spd
km/h
Gust
km/h
Spd
kts
Gust
kts
05/11:30pm 8.7 7.9 6.5 86 1.0 CALM 0 0 0 0 1015.0 1014.9 0.0
05/11:00pm 9.9 9.3 7.2 83 1.3 CALM 0 2 0 1 1015.1 1015.0 0.0
05/10:30pm 10.4 8.5 6.9 79 1.7 SSE 6 6 3 3 1014.7 1014.6 0.0
05/10:00pm 10.9 8.5 7.2 78 1.8 SSE 9 11 5 6 1014.2 1014.1 0.0
05/09:30pm 12.0 9.7 7.3 73 2.3 SSE 9 9 5 5 1014.2 1014.1 0.0
05/09:00pm 12.9 10.6 7.6 70 2.6 S 9 13 5 7 1014.9 1014.8 0.0
05/08:30pm 14.1 11.8 7.6 65 3.2 S 9 17 5 9 1014.8 1014.7 0.0
05/08:00pm 14.8 13.0 8.1 64 3.4 SSW 7 11 4 6 1014.6 1014.5 0.0
05/07:30pm 14.8 12.1 7.4 61 3.7 SSW 11 15 6 8 1014.3 1014.2 0.0
05/07:00pm 16.5 14.0 8.0 57 4.3 SSW 11 17 6 9 1013.9 1013.8 0.0
05/06:30pm 15.4 12.4 7.9 61 3.8 SSW 13 19 7 10 1013.8 1013.7 0.0
05/06:00pm 16.1 13.2 8.3 60 4.0 SSW 13 17 7 9 1014.0 1013.9 0.0
05/05:30pm 16.2 13.0 8.4 60 4.0 SSW 15 20 8 11 1014.3 1014.2 0.0
05/05:00pm 17.1 14.2 8.0 55 4.6 SSW 13 19 7 10 1014.3 1014.2 0.0
05/04:30pm 17.0 13.4 8.2 56 4.5 SSW 17 20 9 11 1013.5 1013.4 0.0
05/04:00pm 18.1 14.9 8.4 53 5.0 SSW 15 26 8 14 1013.3 1013.2 0.0
05/03:30pm 18.7 15.7 7.5 48 5.7 SW 13 20 7 11 1013.5 1013.4 0.0
05/03:00pm 18.8 15.4 7.6 48 5.7 SW 15 24 8 13 1013.8 1013.7 0.0
05/02:30pm 18.7 16.1 9.2 54 5.0 SSW 13 22 7 12 1014.0 1013.9 0.0
05/02:00pm 17.3 14.7 9.2 59 4.2 SSW 13 24 7 13 1014.0 1013.9 0.0
05/01:30pm 18.4 15.8 10.8 61 4.1 SW 15 26 8 14 1013.7 1013.6 0.0
05/01:00pm 18.1 15.0 10.2 60 4.2 SSW 17 22 9 12 1013.8 1013.7 0.0
05/12:30pm 17.3 13.6 10.2 63 3.8 SSW 20 28 11 15 1013.9 1013.8 0.0
05/12:00pm 16.5 13.8 10.4 67 3.2 SSW 15 22 8 12 1013.8 1013.7 0.0
05/11:30am 16.3 12.7 10.6 69 3.0 SSW 20 28 11 15 1013.7 1013.6 0.0
05/11:00am 16.7 12.6 11.6 72 2.8 SW 24 35 13 19 1013.6 1013.5 0.0
05/10:30am 17.0 14.2 10.1 64 3.7 SSW 15 22 8 12 1013.3 1013.2 0.0
05/10:00am 16.3 13.1 9.9 66 3.4 WSW 17 26 9 14 1013.2 1013.1 0.0
05/09:30am 16.1 13.1 9.3 64 3.5 WSW 15 24 8 13 1012.9 1012.8 0.0
05/09:00am 15.8 12.6 8.5 62 3.7 W 15 20 8 11 1012.6 1012.5 6.2
05/08:30am 15.1 12.9 9.2 68 3.0 WSW 11 19 6 10 1012.4 1012.3 6.2
05/08:00am 14.4 13.0 9.4 72 2.6 WSW 7 13 4 7 1012.1 1012.0 6.2
05/07:30am 13.6 11.8 9.3 75 2.2 W 9 19 5 10 1011.8 1011.7 6.2
05/07:00am 13.2 11.4 9.5 78 1.9 WSW 9 17 5 9 1011.2 1011.1 6.2
05/06:30am 12.5 11.3 10.4 87 1.1 WNW 7 11 4 6 1010.5 1010.4 6.2
05/06:00am 12.4 11.3 10.6 89 0.9 NW 7 9 4 5 1010.0 1009.9 6.2
05/05:30am 12.1 11.0 10.5 90 0.8 NW 7 9 4 5 1009.7 1009.6 6.2
05/05:00am 11.9 10.8 10.1 89 0.9 NW 6 9 3 5 1009.4 1009.3 6.2
05/04:30am 12.5 11.0 10.6 88 1.0 WNW 9 13 5 7 1009.1 1009.0 6.2
05/04:00am 12.7 11.6 10.8 88 1.0 W 7 11 4 6 1008.9 1008.8 6.2
05/03:30am 13.1 11.7 11.0 87 1.1 WNW 9 17 5 9 1008.5 1008.4 6.2
05/03:00am 13.4 11.4 11.5 88 1.0 W 13 20 7 11 1008.0 1007.9 6.2
05/02:30am 14.3 12.1 12.2 87 1.1 W 15 24 8 13 1007.6 1007.6 6.2
05/02:00am 14.9 12.8 12.4 85 1.4 W 15 28 8 15 1007.3 1007.3 6.2
05/01:30am 15.7 13.2 13.5 87 1.2 WSW 19 30 10 16 1006.9 1006.9 6.2
05/01:00am 16.3 14.5 14.5 89 1.0 WSW 17 26 9 14 1006.5 1006.5 6.2
05/12:30am 17.2 16.2 15.5 90 1.0 W 15 26 8 14 1005.9 1005.9 6.2
05/12:00am 18.4 16.5 16.7 90 1.0 W 22 33 12 18 1005.3 1005.3 6.2
 
Date/Time
EDT
Temp
°C
App
Temp
°C
Dew
Point
°C
Rel
Hum
%
Delta-T
°C
Wind Press
QNH
hPa
Press
MSL
hPa
Rain since
9am
mm
Dir  Spd
km/h
Gust
km/h
Spd
kts
Gust
kts
04/11:30pm 21.5 20.6 16.9 75 2.8 WNW 17 28 9 15 1004.3 1004.2 5.6
04/11:00pm 21.5 20.0 16.2 72 3.2 NNW 19 26 10 14 1003.3 1003.2 5.6
04/10:30pm 21.7 19.9 16.0 70 3.4 N 20 35 11 19 1002.8 1002.7 5.6
04/10:00pm 21.6 20.7 15.9 70 3.4 N 15 20 8 11 1002.7 1002.6 5.6
04/09:30pm 21.8 20.5 15.9 69 3.6 N 17 24 9 13 1002.5 1002.4 5.6
04/09:00pm 22.2 21.0 16.0 68 3.8 N 17 24 9 13 1002.1 1002.0 5.6
04/08:30pm 22.5 21.5 16.5 69 3.7 N 17 24 9 13 1002.1 1002.0 5.6
04/08:00pm 22.9 22.4 16.9 69 3.7 N 15 22 8 12 1002.3 1002.2 5.6
04/07:30pm 23.4 23.3 17.8 71 3.5 N 15 26 8 14 1002.0 1001.9 5.6
04/07:00pm 22.4 22.1 18.2 77 2.6 N 17 28 9 15 1002.1 1002.0 5.6
04/06:30pm 21.4 20.1 18.2 82 2.0 N 22 35 12 19 1002.0 1001.9 5.6
04/06:00pm 21.5 20.3 18.5 83 1.9 N 22 32 12 17 1002.3 1002.2 5.6
04/05:30pm 20.3 20.1 18.6 90 1.1 N 17 24 9 13 1003.3 1003.2 5.6
04/05:00pm 19.5 19.3 18.5 94 0.6 NNE 17 26 9 14 1003.8 1003.7 5.6
04/04:30pm 19.2 19.2 18.2 94 0.6 N 15 24 8 13 1004.9 1004.9 5.4
04/04:00pm 19.4 17.0 18.2 93 0.7 NNW 28 43 15 23 1005.8 1005.8 4.6
04/03:30pm 22.5 15.7 15.8 66 4.0 NNW 46 70 25 38 1005.7 1005.7 0.0
04/03:28pm 23.3 16.3 15.4 61 4.7 NNW 46 70 25 38 1005.6 1005.6 0.0
04/03:05pm 28.4 23.3 11.9 36 9.6 N 30 56 16 30 1004.6 1004.5 0.0
04/03:00pm 28.6 24.7 13.3 39 9.1 NNW 26 43 14 23 1004.8 1004.8 0.0
04/02:36pm 29.3 23.9 12.7 36 9.8 NW 33 54 18 29 1004.9 1004.9 0.0
04/02:30pm 29.0 23.1 12.4 36 9.7 NW 35 48 19 26 1005.0 1005.0 0.0
04/02:00pm 30.1 26.8 11.6 32 10.8 NNW 20 33 11 18 1005.3 1005.3 0.0
04/01:30pm 29.3 24.9 10.4 31 10.7 NW 24 41 13 22 1005.5 1005.5 0.0
04/01:00pm 30.2 28.0 10.7 30 11.2 NNW 13 20 7 11 1005.7 1005.7 0.0
04/12:30pm 29.2 27.2 10.3 31 10.7 NNW 11 19 6 10 1005.5 1005.5 0.0
04/12:00pm 28.5 27.3 10.2 32 10.4 N 7 13 4 7 1005.7 1005.7 0.0
04/11:30am 26.9 25.9 10.2 35 9.3 N 6 13 3 7 1006.1 1006.1 0.0
04/11:00am 25.4 24.0 9.7 37 8.7 N 7 13 4 7 1006.6 1006.6 0.0
04/10:30am 24.2 23.1 10.8 43 7.5 N 7 13 4 7 1006.9 1006.9 0.0
04/10:00am 21.9 21.0 11.3 51 5.9 N 7 11 4 6 1007.4 1007.4 0.0
04/09:30am 19.3 19.3 11.3 60 4.4 NE 2 4 1 2 1007.6 1007.6 0.0
04/09:00am 16.9 16.6 11.6 71 2.9 NE 4 6 2 3 1007.7 1007.7 0.0
04/08:30am 13.0 12.8 11.9 93 0.6 ENE 4 6 2 3 1008.0 1007.9 0.0
04/08:00am 11.3 11.5 10.5 95 0.4 CALM 0 0 0 0 1008.3 1008.2 0.0
04/07:30am 10.4 10.4 9.8 96 0.3 CALM 0 0 0 0 1008.6 1008.5 0.0
04/07:00am 9.7 9.1 8.9 95 0.4 NE 2 4 1 2 1008.6 1008.5 0.0
04/06:30am 9.4 8.3 8.6 95 0.4 ENE 4 6 2 3 1008.7 1008.6 0.0
04/06:00am 9.1 8.0 8.3 95 0.4 E 4 4 2 2 1008.8 1008.7 0.0
04/05:30am 8.9 7.3 8.1 95 0.4 ENE 6 7 3 4 1008.7 1008.6 0.0
04/05:00am 9.0 7.4 8.2 95 0.4 NE 6 6 3 3 1008.9 1008.8 0.0
04/04:30am 8.4 7.4 7.5 94 0.4 NE 2 4 1 2 1009.1 1009.0 0.0
04/04:00am 8.7 8.2 7.8 94 0.4 CALM 0 0 0 0 1009.6 1009.5 0.0
04/03:30am 9.2 8.8 8.3 94 0.4 CALM 0 4 0 2 1009.8 1009.7 0.0
04/03:00am 9.0 8.1 7.8 92 0.6 SSW 2 4 1 2 1010.3 1010.2 0.0
04/02:30am 10.1 9.5 8.9 92 0.6 ESE 2 6 1 3 1010.1 1010.0 0.0
04/02:00am 10.6 8.7 9.2 91 0.7 SE 9 13 5 7 1010.3 1010.2 0.0
04/01:30am 10.7 9.2 9.1 90 0.8 ESE 7 11 4 6 1011.0 1010.9 0.0
04/01:00am 10.7 9.2 9.0 89 0.8 SE 7 9 4 5 1011.8 1011.7 0.0
04/12:30am 11.4 9.6 9.5 88 1.0 ESE 9 13 5 7 1012.0 1011.9 0.0
04/12:00am 11.4 9.5 9.1 86 1.2 ESE 9 11 5 6 1012.3 1012.2 0.0
 
Date/Time
EDT
Temp
°C
App
Temp
°C
Dew
Point
°C
Rel
Hum
%
Delta-T
°C
Wind Press
QNH
hPa
Press
MSL
hPa
Rain since
9am
mm
Dir  Spd
km/h
Gust
km/h
Spd
kts
Gust
kts
03/11:30pm 12.0 10.2 9.6 85 1.2 ESE 9 13 5 7 1012.7 1012.6 0.0
03/11:00pm 12.2 10.0 9.4 83 1.4 ESE 11 15 6 8 1013.0 1012.9 0.0
03/10:30pm 12.6 9.6 9.4 81 1.6 ESE 15 22 8 12 1013.2 1013.1 0.0
03/10:00pm 12.4 10.5 8.9 79 1.8 ESE 9 13 5 7 1013.5 1013.4 0.0
03/09:30pm 13.0 10.6 8.5 74 2.2 SE 11 15 6 8 1013.5 1013.4 0.0
03/09:00pm 14.0 10.5 8.8 71 2.6 SE 17 24 9 13 1013.4 1013.3 0.0
03/08:30pm 15.2 11.4 8.9 66 3.2 ESE 19 28 10 15 1013.1 1013.0 0.0
03/08:00pm 16.9 13.0 8.8 59 4.2 ESE 19 26 10 14 1012.9 1012.8 0.0
03/07:30pm 18.6 16.4 9.4 55 4.9 S 11 15 6 8 1013.0 1012.9 0.0
03/07:00pm 18.9 15.5 9.1 53 5.1 SSW 17 24 9 13 1012.9 1012.8 0.0
03/06:30pm 19.5 15.5 9.1 51 5.5 SSW 20 26 11 14 1013.0 1012.9 0.0
03/06:00pm 20.7 16.8 9.3 48 6.1 SSW 20 28 11 15 1012.9 1012.8 0.0
03/05:30pm 21.9 17.9 8.4 42 7.1 S 19 26 10 14 1012.8 1012.7 0.0
03/05:00pm 21.9 18.0 7.0 38 7.7 S 17 26 9 14 1013.1 1013.0 0.0

Other Formats:

Comma delimited format used in spreadsheet applications
http://www.bom.gov.au/fwo/IDV60801/IDV60801.95822.axf

JavaScript Object Notation format (JSON) in row-major order
http://www.bom.gov.au/fwo/IDV60801/IDV60801.95822.json